sim
Sign-in with your pilot id or email,
or register
Callsign
Passwort

Schedule Details

Flight Number: OEC87775
Departure: Budapest Ferenc Liszt International Airport (LHBP) at 11:00 UTC
Arrival: Munich Airport (EDDM) at 12:28 UTC
Route: TORN1D TORNO DCT ABETI DCT GAMLI DCT AMADI Q113 NAPSA NAPS2A

Weather Information
Getting current METAR information for LHBP 242200Z 08002KT CAVOK 15/13 Q1009 NOSIG
Getting current METAR information for EDDM 242150Z 27018G29KT 9999 -RA SCT019 BKN025 15/13 Q1004 BECMG 25010KT

Schedule Frequency

Route Map